createdAt,value
2018-03-25T00:00:26.214Z,74.75
2018-03-25T00:01:26.209Z,74.56
2018-03-25T00:02:26.224Z,74.94
2018-03-25T00:03:26.227Z,74.75
2018-03-25T00:04:26.226Z,74.37
2018-03-25T00:05:26.238Z,74.56
2018-03-25T00:06:27.061Z,74.66
2018-03-25T00:07:26.236Z,75.04
2018-03-25T00:08:26.236Z,74.94
2018-03-25T00:09:26.230Z,74.94
2018-03-25T00:10:26.254Z,74.85
2018-03-25T00:11:26.240Z,75.04
2018-03-25T00:13:19.216Z,75.23
2018-03-25T00:14:19.163Z,75.51
2018-03-25T00:16:12.135Z,75.04
2018-03-25T00:17:12.121Z,74.85
2018-03-25T00:19:05.107Z,74.47
2018-03-25T00:20:05.088Z,74.37
2018-03-25T00:21:58.527Z,74.37
2018-03-25T00:22:58.033Z,74.75
2018-03-25T00:24:51.007Z,74.66
2018-03-25T00:25:50.989Z,74.47
2018-03-25T00:26:50.991Z,74.37
2018-03-25T00:27:51.002Z,74.37
2018-03-25T00:28:51.001Z,73.99
2018-03-25T00:29:50.999Z,73.90
2018-03-25T00:30:51.005Z,73.99
2018-03-25T00:31:50.995Z,73.80
2018-03-25T00:32:51.000Z,74.18
2018-03-25T00:33:51.007Z,74.08
2018-03-25T00:34:51.969Z,74.47
2018-03-25T00:36:43.974Z,74.75
2018-03-25T00:37:43.918Z,74.85
2018-03-25T00:39:36.920Z,74.66
2018-03-25T00:40:36.876Z,74.94
2018-03-25T00:42:29.873Z,74.75
2018-03-25T00:43:29.829Z,74.94
2018-03-25T00:45:22.813Z,74.85
2018-03-25T00:46:22.777Z,74.94
2018-03-25T00:48:16.351Z,74.66
2018-03-25T00:49:16.299Z,74.47
2018-03-25T00:51:09.210Z,74.94
2018-03-25T00:52:09.210Z,74.75
2018-03-25T00:54:02.208Z,75.04
2018-03-25T00:55:02.173Z,74.66
2018-03-25T00:56:55.152Z,75.32
2018-03-25T00:57:55.171Z,75.23
2018-03-25T00:59:48.108Z,75.04
2018-03-25T01:00:48.074Z,75.13
2018-03-25T01:02:41.067Z,75.23
2018-03-25T01:03:41.075Z,74.75
2018-03-25T01:05:34.522Z,74.75
2018-03-25T01:06:33.986Z,74.66
2018-03-25T01:08:26.971Z,74.56
2018-03-25T01:09:26.976Z,74.85
2018-03-25T01:11:19.936Z,74.56
2018-03-25T01:12:19.935Z,74.56
2018-03-25T01:14:12.872Z,74.66
2018-03-25T01:15:12.888Z,74.66
2018-03-25T01:17:05.864Z,74.85
2018-03-25T01:18:05.846Z,74.66
2018-03-25T01:19:59.756Z,74.75
2018-03-25T01:20:58.784Z,74.56
2018-03-25T01:22:52.581Z,74.37
2018-03-25T01:23:52.558Z,74.08
2018-03-25T01:25:45.530Z,74.27
2018-03-25T01:26:45.520Z,74.08
2018-03-25T01:28:40.064Z,73.80
2018-03-25T01:29:38.478Z,73.99
2018-03-25T01:31:32.409Z,73.80
2018-03-25T01:32:31.472Z,73.76
2018-03-25T01:34:24.418Z,74.71
2018-03-25T01:35:24.384Z,75.28
2018-03-25T01:37:17.385Z,75.09
2018-03-25T01:38:17.374Z,74.90
2018-03-25T01:40:10.326Z,75.00
2018-03-25T01:41:10.311Z,74.90
2018-03-25T01:43:03.262Z,74.62
2018-03-25T01:44:03.254Z,74.71
2018-03-25T01:45:56.328Z,74.62
2018-03-25T01:46:56.233Z,74.71
2018-03-25T01:48:49.176Z,75.19
2018-03-25T01:49:49.187Z,75.28
2018-03-25T01:51:42.154Z,75.19
2018-03-25T01:52:42.135Z,75.09
2018-03-25T01:54:35.111Z,75.19
2018-03-25T01:55:35.079Z,75.28
2018-03-25T01:56:35.089Z,75.28
2018-03-25T01:57:35.089Z,75.09
2018-03-25T01:58:35.104Z,75.28
2018-03-25T01:59:35.104Z,75.38
2018-03-25T02:00:35.093Z,75.09
2018-03-25T02:01:35.107Z,75.09
2018-03-25T02:02:35.102Z,75.19
2018-03-25T02:03:35.126Z,75.09
2018-03-25T02:04:35.149Z,75.00
2018-03-25T02:05:35.112Z,75.57
2018-03-25T02:06:35.123Z,75.57
2018-03-25T02:07:35.124Z,75.57
2018-03-25T02:08:35.127Z,75.67
2018-03-25T02:09:35.112Z,75.57
2018-03-25T02:10:35.124Z,75.67
2018-03-25T02:11:35.120Z,75.67
2018-03-25T02:12:35.129Z,75.47
2018-03-25T02:13:35.129Z,75.95
2018-03-25T02:14:35.127Z,75.47
2018-03-25T02:15:35.137Z,76.23
2018-03-25T02:16:35.130Z,75.95
2018-03-25T02:18:28.123Z,75.85
2018-03-25T02:19:28.100Z,76.04
2018-03-25T02:21:21.057Z,76.42
2018-03-25T02:22:21.049Z,76.23
2018-03-25T02:24:14.048Z,76.52
2018-03-25T02:25:14.015Z,76.80
2018-03-25T02:27:07.013Z,77.28
2018-03-25T02:28:06.994Z,76.95
2018-03-25T02:29:59.978Z,77.24
2018-03-25T02:30:59.981Z,77.52
2018-03-25T02:32:52.922Z,77.81
2018-03-25T02:33:52.888Z,77.71
2018-03-25T02:35:46.829Z,77.71
2018-03-25T02:36:45.855Z,77.52
2018-03-25T02:38:38.819Z,77.43
2018-03-25T02:39:38.800Z,77.33
2018-03-25T02:41:31.790Z,77.43
2018-03-25T02:42:31.792Z,77.62
2018-03-25T02:44:24.742Z,78.28
2018-03-25T02:45:24.725Z,77.90
2018-03-25T02:47:17.731Z,77.81
2018-03-25T02:48:17.676Z,77.81
2018-03-25T02:50:10.628Z,77.71
2018-03-25T02:51:10.637Z,77.37
2018-03-25T02:53:03.609Z,77.47
2018-03-25T02:54:04.563Z,77.28
2018-03-25T02:55:56.567Z,76.99
2018-03-25T02:56:56.555Z,77.09
2018-03-25T02:58:49.550Z,77.18
2018-03-25T02:59:49.501Z,76.71
2018-03-25T03:01:42.462Z,76.61
2018-03-25T03:02:42.452Z,76.80
2018-03-25T03:04:35.439Z,76.80
2018-03-25T03:05:35.415Z,75.85
2018-03-25T03:07:28.380Z,76.32
2018-03-25T03:08:28.370Z,76.42
2018-03-25T03:10:21.364Z,76.90
2018-03-25T03:11:21.331Z,76.80
2018-03-25T03:13:15.279Z,76.80
2018-03-25T03:14:14.296Z,76.71
2018-03-25T03:16:07.279Z,76.99
2018-03-25T03:17:07.253Z,76.80
2018-03-25T03:19:00.218Z,76.23
2018-03-25T03:20:00.209Z,76.52
2018-03-25T03:21:00.217Z,76.04
2018-03-25T03:22:00.221Z,76.04
2018-03-25T03:23:00.213Z,75.85
2018-03-25T03:24:00.216Z,75.67
2018-03-25T03:25:00.214Z,75.67
2018-03-25T03:26:00.225Z,75.67
2018-03-25T03:27:00.236Z,75.85
2018-03-25T03:28:00.240Z,75.47
2018-03-25T03:29:53.183Z,75.67
2018-03-25T03:30:53.123Z,75.57
2018-03-25T03:32:46.604Z,75.57
2018-03-25T03:33:46.072Z,75.47
2018-03-25T03:35:39.048Z,76.14
2018-03-25T03:36:39.030Z,76.90
2018-03-25T03:38:32.030Z,76.61
2018-03-25T03:39:31.997Z,76.42
2018-03-25T03:41:24.946Z,76.99
2018-03-25T03:42:24.939Z,76.61
2018-03-25T03:43:24.949Z,77.18
2018-03-25T03:44:24.964Z,77.18
2018-03-25T03:45:24.961Z,77.75
2018-03-25T03:46:24.952Z,77.75
2018-03-25T03:48:17.960Z,77.56
2018-03-25T03:49:17.943Z,76.90
2018-03-25T03:51:10.944Z,77.09
2018-03-25T03:52:10.928Z,77.37
2018-03-25T03:54:03.886Z,77.09
2018-03-25T03:55:03.854Z,77.62
2018-03-25T03:56:56.850Z,77.56
2018-03-25T03:57:56.829Z,77.47
2018-03-25T03:59:49.793Z,77.56
2018-03-25T04:00:49.775Z,77.18
2018-03-25T04:02:42.742Z,77.90
2018-03-25T04:03:42.717Z,77.62
2018-03-25T04:05:35.710Z,77.90
2018-03-25T04:06:35.681Z,78.09
2018-03-25T04:08:28.657Z,77.81
2018-03-25T04:09:28.661Z,78.00
2018-03-25T04:11:22.084Z,78.19
2018-03-25T04:12:21.601Z,77.90
2018-03-25T04:14:14.579Z,78.09
2018-03-25T04:15:15.535Z,78.19
2018-03-25T04:17:07.540Z,78.00
2018-03-25T04:18:07.528Z,78.28
2018-03-25T04:20:00.972Z,78.38
2018-03-25T04:21:00.464Z,78.66
2018-03-25T04:22:53.449Z,78.19
2018-03-25T04:23:53.427Z,77.81
2018-03-25T04:25:46.385Z,77.71
2018-03-25T04:26:46.399Z,78.19
2018-03-25T04:28:42.905Z,78.95
2018-03-25T04:29:39.335Z,78.95
2018-03-25T04:30:41.311Z,78.95
2018-03-25T04:31:39.338Z,78.75
2018-03-25T04:32:39.346Z,78.85
2018-03-25T04:33:39.343Z,78.47
2018-03-25T04:34:39.350Z,78.85
2018-03-25T04:35:39.348Z,78.95
2018-03-25T04:36:39.351Z,78.95
2018-03-25T04:37:39.350Z,78.85
2018-03-25T04:38:40.311Z,78.95
2018-03-25T04:39:39.349Z,78.85
2018-03-25T04:40:39.364Z,79.14
2018-03-25T04:41:39.354Z,79.23
2018-03-25T04:42:39.361Z,78.28
2018-03-25T04:43:39.360Z,78.19
2018-03-25T04:44:39.370Z,78.38
2018-03-25T04:45:39.367Z,78.66
2018-03-25T04:46:39.379Z,78.85
2018-03-25T04:47:39.382Z,78.47
2018-03-25T04:48:39.387Z,78.09
2018-03-25T04:49:39.372Z,78.28
2018-03-25T04:50:39.377Z,78.19
2018-03-25T04:51:39.384Z,78.28
2018-03-25T04:52:39.396Z,78.19
2018-03-25T04:53:39.401Z,77.62
2018-03-25T04:54:39.393Z,77.81
2018-03-25T04:55:39.398Z,77.52
2018-03-25T04:56:39.401Z,77.56
2018-03-25T04:57:39.418Z,77.75
2018-03-25T04:58:39.407Z,77.75
2018-03-25T04:59:39.396Z,77.75
2018-03-25T05:00:39.403Z,77.66
2018-03-25T05:01:39.404Z,77.75
2018-03-25T05:02:39.410Z,77.56
2018-03-25T05:03:39.411Z,77.75
2018-03-25T05:04:39.409Z,77.56
2018-03-25T05:05:39.416Z,77.47
2018-03-25T05:06:39.413Z,77.28
2018-03-25T05:07:39.433Z,77.28
2018-03-25T05:08:39.418Z,77.09
2018-03-25T05:09:39.423Z,77.09
2018-03-25T05:10:39.436Z,76.99
2018-03-25T05:11:39.436Z,77.18
2018-03-25T05:12:39.447Z,76.71
2018-03-25T05:13:39.442Z,76.71
2018-03-25T05:14:39.449Z,76.90
2018-03-25T05:15:39.444Z,76.99
2018-03-25T05:16:39.450Z,76.99
2018-03-25T05:17:39.465Z,77.18
2018-03-25T05:18:39.452Z,76.80
2018-03-25T05:19:39.449Z,77.18
2018-03-25T05:20:39.462Z,76.80
2018-03-25T05:21:39.459Z,77.18
2018-03-25T05:22:39.460Z,77.09
2018-03-25T05:23:39.465Z,77.37
2018-03-25T05:24:39.473Z,76.99
2018-03-25T05:25:39.464Z,76.71
2018-03-25T05:26:42.313Z,76.52
2018-03-25T05:27:39.479Z,76.23
2018-03-25T05:28:39.520Z,76.32
2018-03-25T05:29:39.489Z,76.52
2018-03-25T05:30:39.491Z,76.61
2018-03-25T05:31:39.487Z,76.04
2018-03-25T05:32:39.485Z,76.23
2018-03-25T05:33:39.491Z,75.85
2018-03-25T05:34:39.496Z,75.67
2018-03-25T05:35:40.492Z,75.85
2018-03-25T05:36:39.495Z,76.71
2018-03-25T05:37:39.500Z,76.52
2018-03-25T05:38:39.500Z,76.80
2018-03-25T05:39:39.510Z,77.18
2018-03-25T05:40:39.510Z,77.09
2018-03-25T05:41:39.509Z,77.56
2018-03-25T05:42:39.508Z,77.56
2018-03-25T05:43:39.511Z,77.94
2018-03-25T05:44:39.518Z,77.84
2018-03-25T05:45:39.514Z,77.75
2018-03-25T05:46:39.535Z,77.56
2018-03-25T05:47:39.522Z,77.47
2018-03-25T05:48:39.532Z,77.28
2018-03-25T05:49:39.540Z,76.99
2018-03-25T05:50:39.542Z,76.99
2018-03-25T05:51:39.541Z,76.23
2018-03-25T05:52:39.560Z,76.71
2018-03-25T05:53:39.540Z,75.85
2018-03-25T05:54:39.540Z,75.99
2018-03-25T05:55:39.559Z,75.99
2018-03-25T05:56:39.555Z,75.60
2018-03-25T05:57:39.552Z,75.13
2018-03-25T05:58:39.553Z,75.32
2018-03-25T05:59:39.556Z,74.85
2018-03-25T06:00:39.555Z,74.66
2018-03-25T06:01:39.564Z,74.85
2018-03-25T06:02:39.559Z,74.85
2018-03-25T06:03:39.574Z,75.04
2018-03-25T06:04:39.571Z,75.85
2018-03-25T06:05:39.576Z,75.70
2018-03-25T06:06:39.579Z,75.51
2018-03-25T06:07:39.580Z,75.89
2018-03-25T06:08:41.331Z,75.42
2018-03-25T06:09:39.577Z,75.04
2018-03-25T06:10:39.584Z,75.70
2018-03-25T06:11:39.599Z,75.23
2018-03-25T06:12:42.110Z,74.94
2018-03-25T06:13:41.104Z,74.94
2018-03-25T06:14:41.108Z,75.13
2018-03-25T06:15:39.608Z,74.85
2018-03-25T06:16:41.333Z,74.85
2018-03-25T06:17:39.614Z,75.23
2018-03-25T06:18:39.624Z,74.94
2018-03-25T06:19:39.614Z,75.13
2018-03-25T06:20:39.615Z,75.32
2018-03-25T06:21:39.622Z,74.66
2018-03-25T06:22:39.651Z,74.56
2018-03-25T06:23:39.628Z,74.85
2018-03-25T06:24:39.686Z,74.94
2018-03-25T06:25:39.630Z,75.23
2018-03-25T06:26:39.660Z,74.85
2018-03-25T06:27:39.638Z,73.84
2018-03-25T06:28:39.647Z,74.22
2018-03-25T06:29:39.638Z,73.55
2018-03-25T06:30:39.649Z,73.27
2018-03-25T06:31:39.651Z,73.36
2018-03-25T06:32:39.662Z,73.55
2018-03-25T06:33:39.655Z,73.18
2018-03-25T06:34:39.667Z,73.08
2018-03-25T06:35:39.662Z,73.27
2018-03-25T06:36:39.662Z,72.60
2018-03-25T06:37:39.670Z,72.66
2018-03-25T06:38:39.674Z,72.51
2018-03-25T06:39:39.682Z,72.13
2018-03-25T06:40:39.683Z,72.51
2018-03-25T06:41:39.676Z,72.51
2018-03-25T06:42:39.691Z,72.70
2018-03-25T06:43:39.683Z,72.89
2018-03-25T06:44:39.691Z,72.99
2018-03-25T06:45:39.695Z,72.60
2018-03-25T06:46:39.701Z,71.94
2018-03-25T06:47:39.704Z,72.13
2018-03-25T06:48:39.725Z,72.32
2018-03-25T06:49:39.702Z,72.70
2018-03-25T06:50:39.711Z,71.94
2018-03-25T06:51:39.709Z,71.94
2018-03-25T06:52:39.714Z,72.03
2018-03-25T06:53:39.723Z,71.75
2018-03-25T06:54:39.723Z,71.46
2018-03-25T06:55:39.731Z,71.75
2018-03-25T06:56:39.734Z,71.08
2018-03-25T06:57:39.727Z,71.66
2018-03-25T06:58:39.736Z,71.66
2018-03-25T06:59:39.734Z,71.84
2018-03-25T07:00:39.743Z,71.56
2018-03-25T07:01:39.737Z,71.37
2018-03-25T07:02:39.758Z,72.22
2018-03-25T07:03:39.751Z,72.74
2018-03-25T07:04:39.750Z,71.88
2018-03-25T07:05:39.756Z,71.41
2018-03-25T07:06:39.753Z,71.02
2018-03-25T07:07:39.764Z,71.41
2018-03-25T07:08:39.792Z,71.69
2018-03-25T07:09:39.773Z,70.64
2018-03-25T07:10:39.773Z,70.45
2018-03-25T07:11:39.784Z,70.45
2018-03-25T07:12:39.780Z,71.22
2018-03-25T07:13:39.784Z,70.26
2018-03-25T07:14:39.783Z,70.54
2018-03-25T07:15:39.791Z,70.36
2018-03-25T07:16:39.792Z,70.26
2018-03-25T07:17:39.801Z,70.74
2018-03-25T07:18:39.795Z,70.83
2018-03-25T07:19:39.810Z,70.45
2018-03-25T07:20:39.811Z,69.88
2018-03-25T07:21:39.804Z,69.69
2018-03-25T07:22:39.813Z,70.83
2018-03-25T07:23:39.821Z,70.17
2018-03-25T07:24:39.823Z,69.31
2018-03-25T07:25:39.845Z,69.21
2018-03-25T07:26:39.828Z,69.69
2018-03-25T07:27:39.841Z,69.41
2018-03-25T07:28:39.836Z,69.02
2018-03-25T07:29:39.840Z,69.25
2018-03-25T07:30:39.842Z,69.63
2018-03-25T07:31:39.845Z,69.25
2018-03-25T07:32:39.849Z,68.59
2018-03-25T07:33:39.856Z,69.06
2018-03-25T07:34:39.857Z,68.59
2018-03-25T07:35:39.855Z,68.40
2018-03-25T07:36:39.863Z,68.01
2018-03-25T07:37:39.894Z,67.82
2018-03-25T07:38:39.873Z,67.63
2018-03-25T07:39:39.894Z,68.01
2018-03-25T07:40:39.879Z,68.01
2018-03-25T07:41:39.884Z,67.63
2018-03-25T07:42:39.899Z,67.35
2018-03-25T07:43:39.889Z,67.16
2018-03-25T07:44:39.896Z,66.78
2018-03-25T07:45:39.897Z,67.44
2018-03-25T07:46:39.900Z,67.25
2018-03-25T07:47:39.908Z,68.01
2018-03-25T07:48:39.916Z,67.16
2018-03-25T07:49:39.913Z,68.11
2018-03-25T07:50:39.919Z,67.25
2018-03-25T07:51:39.927Z,67.82
2018-03-25T07:52:39.932Z,67.54
2018-03-25T07:53:39.943Z,67.29
2018-03-25T07:54:39.939Z,66.62
2018-03-25T07:55:39.951Z,66.43
2018-03-25T07:56:39.949Z,66.33
2018-03-25T07:57:39.958Z,66.14
2018-03-25T07:58:39.972Z,66.24
2018-03-25T07:59:39.960Z,66.72
2018-03-25T08:00:39.958Z,66.53
2018-03-25T08:01:39.961Z,66.62
2018-03-25T08:02:39.965Z,66.24
2018-03-25T08:03:40.008Z,66.14
2018-03-25T08:04:40.029Z,66.62
2018-03-25T08:05:39.976Z,66.43
2018-03-25T08:06:39.980Z,66.72
2018-03-25T08:07:39.980Z,66.72
2018-03-25T08:08:39.990Z,66.53
2018-03-25T08:09:40.006Z,66.72
2018-03-25T08:10:40.003Z,66.72
2018-03-25T08:11:40.003Z,66.81
2018-03-25T08:12:40.002Z,66.24
2018-03-25T08:13:40.012Z,66.14
2018-03-25T08:14:40.009Z,65.67
2018-03-25T08:15:40.020Z,65.77
2018-03-25T08:16:40.026Z,65.19
2018-03-25T08:17:40.858Z,65.00
2018-03-25T08:18:40.036Z,64.72
2018-03-25T08:19:40.041Z,65.13
2018-03-25T08:20:40.043Z,64.65
2018-03-25T08:21:40.045Z,64.56
2018-03-25T08:22:40.048Z,64.28
2018-03-25T08:23:40.066Z,64.47
2018-03-25T08:24:40.055Z,64.37
2018-03-25T08:25:40.060Z,64.28
2018-03-25T08:26:40.067Z,63.60
2018-03-25T08:27:40.069Z,63.80
2018-03-25T08:28:40.068Z,63.99
2018-03-25T08:29:40.095Z,63.89
2018-03-25T08:30:40.084Z,63.80
2018-03-25T08:31:40.094Z,63.60
2018-03-25T08:32:40.098Z,62.85
2018-03-25T08:33:40.097Z,62.94
2018-03-25T08:34:40.104Z,63.17
2018-03-25T08:35:40.114Z,62.78
2018-03-25T08:36:40.118Z,63.54
2018-03-25T08:37:40.121Z,62.68
2018-03-25T08:38:40.119Z,62.59
2018-03-25T08:39:40.132Z,63.07
2018-03-25T08:40:40.132Z,62.49
2018-03-25T08:41:40.141Z,62.49
2018-03-25T08:42:40.154Z,62.49
2018-03-25T08:43:40.154Z,62.40
2018-03-25T08:44:40.174Z,62.30
2018-03-25T08:45:40.141Z,62.02
2018-03-25T08:46:40.148Z,61.54
2018-03-25T08:47:40.157Z,61.45
2018-03-25T08:48:40.212Z,61.54
2018-03-25T08:49:40.161Z,61.83
2018-03-25T08:50:40.173Z,61.16
2018-03-25T08:51:40.178Z,61.07
2018-03-25T08:52:40.188Z,60.69
2018-03-25T08:53:40.189Z,60.81
2018-03-25T08:54:40.192Z,60.62
2018-03-25T08:55:40.252Z,60.62
2018-03-25T08:56:40.195Z,60.52
2018-03-25T08:57:40.205Z,59.86
2018-03-25T08:58:40.210Z,60.62
2018-03-25T08:59:40.222Z,60.14
2018-03-25T09:00:40.214Z,59.95
2018-03-25T09:01:40.224Z,59.76
2018-03-25T09:02:40.221Z,59.41
2018-03-25T09:03:40.236Z,59.22
2018-03-25T09:04:40.233Z,59.12
2018-03-25T09:05:40.244Z,59.12
2018-03-25T09:06:40.241Z,58.94
2018-03-25T09:07:40.249Z,59.09
2018-03-25T09:08:40.313Z,59.86
2018-03-25T09:09:40.257Z,59.95
2018-03-25T09:10:40.266Z,60.91
2018-03-25T09:11:40.273Z,61.00
2018-03-25T09:12:40.273Z,60.72
2018-03-25T09:13:40.286Z,60.72
2018-03-25T09:14:40.293Z,60.33
2018-03-25T09:15:40.300Z,60.75
2018-03-25T09:16:40.298Z,60.36
2018-03-25T09:17:40.299Z,59.99
2018-03-25T09:18:40.307Z,59.41
2018-03-25T09:19:40.313Z,59.12
2018-03-25T09:20:40.320Z,59.03
2018-03-25T09:21:40.322Z,59.12
2018-03-25T09:22:40.329Z,59.51
2018-03-25T09:23:40.337Z,59.22
2018-03-25T09:24:40.337Z,59.22
2018-03-25T09:25:40.345Z,58.84
2018-03-25T09:26:40.349Z,59.03
2018-03-25T09:27:40.351Z,59.12
2018-03-25T09:28:40.363Z,59.22
2018-03-25T09:29:40.369Z,58.84
2018-03-25T09:30:40.379Z,58.87
2018-03-25T09:31:40.423Z,58.20
2018-03-25T09:32:40.380Z,58.01
2018-03-25T09:33:40.392Z,57.82
2018-03-25T09:34:40.399Z,57.53
2018-03-25T09:35:40.407Z,57.92
2018-03-25T09:36:40.400Z,58.39
2018-03-25T09:37:40.412Z,58.39
2018-03-25T09:38:40.420Z,57.72
2018-03-25T09:39:40.419Z,57.63
2018-03-25T09:40:40.432Z,57.53
2018-03-25T09:41:40.426Z,57.53
2018-03-25T09:42:40.436Z,57.53
2018-03-25T09:43:40.441Z,58.39
2018-03-25T09:44:40.452Z,57.92
2018-03-25T09:45:40.457Z,58.39
2018-03-25T09:46:40.459Z,57.92
2018-03-25T09:47:40.466Z,57.82
2018-03-25T09:48:40.473Z,58.11
2018-03-25T09:49:40.484Z,58.11
2018-03-25T09:50:40.482Z,58.48
2018-03-25T09:51:40.484Z,58.29
2018-03-25T09:52:40.543Z,58.58
2018-03-25T09:53:40.492Z,58.48
2018-03-25T09:54:40.511Z,58.48
2018-03-25T09:55:40.500Z,58.04
2018-03-25T09:56:40.524Z,57.65
2018-03-25T09:57:40.517Z,57.37
2018-03-25T09:58:40.534Z,57.46
2018-03-25T09:59:40.526Z,57.34
2018-03-25T10:00:40.539Z,57.63
2018-03-25T10:01:40.540Z,57.72
2018-03-25T10:02:40.548Z,57.92
2018-03-25T10:03:40.559Z,58.29
2018-03-25T10:04:40.611Z,58.01
2018-03-25T10:05:40.581Z,57.94
2018-03-25T10:06:40.571Z,57.37
2018-03-25T10:07:40.579Z,56.70
2018-03-25T10:08:40.588Z,56.80
2018-03-25T10:09:40.583Z,57.28
2018-03-25T10:10:40.590Z,56.89
2018-03-25T10:11:40.593Z,57.09
2018-03-25T10:12:40.596Z,56.80
2018-03-25T10:13:40.611Z,56.60
2018-03-25T10:14:40.613Z,56.89
2018-03-25T10:15:40.624Z,56.99
2018-03-25T10:16:40.686Z,56.89
2018-03-25T10:17:40.626Z,57.11
2018-03-25T10:18:40.646Z,55.96
2018-03-25T10:19:40.648Z,55.96
2018-03-25T10:20:40.647Z,55.68
2018-03-25T10:21:40.658Z,55.77
2018-03-25T10:22:40.668Z,55.90
2018-03-25T10:23:40.682Z,55.61
2018-03-25T10:24:40.676Z,54.85
2018-03-25T10:25:40.679Z,54.75
2018-03-25T10:26:40.683Z,54.75
2018-03-25T10:27:40.697Z,54.78
2018-03-25T10:28:40.696Z,53.92
2018-03-25T10:29:40.705Z,53.34
2018-03-25T10:30:40.706Z,53.92
2018-03-25T10:31:40.715Z,52.96
2018-03-25T10:32:40.727Z,52.89
2018-03-25T10:33:40.725Z,52.89
2018-03-25T10:34:40.739Z,51.93
2018-03-25T10:35:40.740Z,51.46
2018-03-25T10:36:40.755Z,51.36
2018-03-25T10:37:40.753Z,51.56
2018-03-25T10:38:40.771Z,51.75
2018-03-25T10:39:40.769Z,51.93
2018-03-25T10:40:40.796Z,51.17
2018-03-25T10:41:40.787Z,51.17
2018-03-25T10:42:40.802Z,50.98
2018-03-25T10:43:40.809Z,50.31
2018-03-25T10:44:40.839Z,50.70
2018-03-25T10:45:40.831Z,50.70
2018-03-25T10:46:40.830Z,49.74
2018-03-25T10:47:40.859Z,50.02
2018-03-25T10:48:40.873Z,49.93
2018-03-25T10:49:40.858Z,49.74
2018-03-25T10:50:40.859Z,49.66
2018-03-25T10:51:40.893Z,49.07
2018-03-25T10:52:40.876Z,48.80
2018-03-25T10:53:40.903Z,48.97
2018-03-25T10:54:40.900Z,49.84
2018-03-25T10:55:40.922Z,49.62
2018-03-25T10:56:40.927Z,50.29
2018-03-25T10:57:40.939Z,50.48
2018-03-25T10:58:40.941Z,50.86
2018-03-25T10:59:40.956Z,50.86
2018-03-25T11:00:40.960Z,50.67
2018-03-25T11:01:40.969Z,50.50
2018-03-25T11:02:40.969Z,50.12
2018-03-25T11:03:40.983Z,49.64
2018-03-25T11:04:41.002Z,49.55
2018-03-25T11:05:41.005Z,49.16
2018-03-25T11:06:41.150Z,48.71
2018-03-25T11:07:41.021Z,49.09
2018-03-25T11:08:41.071Z,48.33
2018-03-25T11:09:41.041Z,47.97
2018-03-25T11:10:41.047Z,47.68
2018-03-25T11:11:41.049Z,47.39
2018-03-25T11:12:41.056Z,47.49
2018-03-25T11:13:41.071Z,47.39
2018-03-25T11:14:41.081Z,47.37
2018-03-25T11:15:41.086Z,47.68
2018-03-25T11:16:41.175Z,47.30
2018-03-25T11:17:41.106Z,47.39
2018-03-25T11:18:41.117Z,46.91
2018-03-25T11:19:41.202Z,46.36
2018-03-25T11:20:41.139Z,46.36
2018-03-25T11:21:41.140Z,46.36
2018-03-25T11:22:41.164Z,45.69
2018-03-25T11:23:41.176Z,45.57
2018-03-25T11:24:41.230Z,45.57
2018-03-25T11:25:41.191Z,45.94
2018-03-25T11:26:41.195Z,46.31
2018-03-25T11:27:41.235Z,47.37
2018-03-25T11:28:41.211Z,47.27
2018-03-25T11:29:41.236Z,47.56
2018-03-25T11:30:41.263Z,47.18
2018-03-25T11:31:41.279Z,47.18
2018-03-25T11:32:41.270Z,46.70
2018-03-25T11:33:41.283Z,46.12
2018-03-25T11:34:41.301Z,45.84
2018-03-25T11:35:41.349Z,45.94
2018-03-25T11:36:41.314Z,46.31
2018-03-25T11:37:41.317Z,46.34
2018-03-25T11:38:41.450Z,46.31
2018-03-25T11:39:41.494Z,45.36
2018-03-25T11:40:41.550Z,45.17
2018-03-25T11:41:41.391Z,44.79
2018-03-25T11:42:41.401Z,46.03
2018-03-25T11:43:41.458Z,46.44
2018-03-25T11:44:41.415Z,46.05
2018-03-25T11:45:41.414Z,45.67
2018-03-25T11:46:41.476Z,45.86
2018-03-25T11:47:41.461Z,45.67
2018-03-25T11:48:41.472Z,45.00
2018-03-25T11:49:41.495Z,45.00
2018-03-25T11:50:41.506Z,45.38
2018-03-25T11:51:41.517Z,45.48
2018-03-25T11:52:41.521Z,45.29
2018-03-25T11:53:41.519Z,45.48
2018-03-25T11:54:41.606Z,45.65
2018-03-25T11:55:41.548Z,45.45
2018-03-25T11:56:41.573Z,45.55
2018-03-25T11:57:41.575Z,44.98
2018-03-25T11:58:41.656Z,44.79
2018-03-25T11:59:41.606Z,44.98
2018-03-25T12:00:41.620Z,44.40
2018-03-25T12:01:41.647Z,44.69
2018-03-25T12:02:41.638Z,44.71
2018-03-25T12:03:41.715Z,44.13
2018-03-25T12:04:41.672Z,44.52
2018-03-25T12:05:41.681Z,44.88
2018-03-25T12:06:41.710Z,44.90
2018-03-25T12:07:41.740Z,45.00
2018-03-25T12:08:41.726Z,45.00
2018-03-25T12:09:41.735Z,45.09
2018-03-25T12:10:41.741Z,45.48
2018-03-25T12:11:41.760Z,45.00
2018-03-25T12:12:41.759Z,45.19
2018-03-25T12:13:41.788Z,45.17
2018-03-25T12:14:41.787Z,45.48
2018-03-25T12:15:41.794Z,44.62
2018-03-25T12:16:41.824Z,43.95
2018-03-25T12:17:41.815Z,43.63
2018-03-25T12:18:41.835Z,43.16
2018-03-25T12:19:41.855Z,42.49
2018-03-25T12:20:41.848Z,42.77
2018-03-25T12:21:41.857Z,42.68
2018-03-25T12:22:41.957Z,42.13
2018-03-25T12:23:41.899Z,42.41
2018-03-25T12:24:41.900Z,42.80
2018-03-25T12:25:41.981Z,42.70
2018-03-25T12:26:41.912Z,43.01
2018-03-25T12:27:41.977Z,42.44
2018-03-25T12:28:41.940Z,41.38
2018-03-25T12:29:41.934Z,41.19
2018-03-25T12:30:41.942Z,40.64
2018-03-25T12:31:41.983Z,41.28
2018-03-25T12:32:41.966Z,40.64
2018-03-25T12:33:41.965Z,40.54
2018-03-25T12:34:41.978Z,41.31
2018-03-25T12:35:42.009Z,41.28
2018-03-25T12:36:42.007Z,41.28
2018-03-25T12:37:42.013Z,41.40
2018-03-25T12:38:42.112Z,41.31
2018-03-25T12:39:42.100Z,41.09
2018-03-25T12:40:42.026Z,41.38
2018-03-25T12:41:42.056Z,42.03
2018-03-25T12:42:42.061Z,42.70
2018-03-25T12:43:42.076Z,42.24
2018-03-25T12:44:42.218Z,42.34
2018-03-25T12:45:42.084Z,42.13
2018-03-25T12:46:42.095Z,42.32
2018-03-25T12:47:42.110Z,42.32
2018-03-25T12:48:42.106Z,42.32
2018-03-25T12:49:42.139Z,42.41
2018-03-25T12:50:42.134Z,42.82
2018-03-25T12:51:42.190Z,42.53
2018-03-25T12:52:42.162Z,42.24
2018-03-25T12:53:42.144Z,42.34
2018-03-25T12:54:43.039Z,41.96
2018-03-25T12:55:42.171Z,41.96
2018-03-25T12:56:42.178Z,41.67
2018-03-25T12:57:42.187Z,41.57
2018-03-25T12:58:42.201Z,41.31
2018-03-25T12:59:42.242Z,41.38
2018-03-25T13:00:42.210Z,41.28
2018-03-25T13:01:42.236Z,41.28
2018-03-25T13:02:42.304Z,41.67
2018-03-25T13:03:42.238Z,42.13
2018-03-25T13:04:42.240Z,42.32
2018-03-25T13:05:42.243Z,42.70
2018-03-25T13:06:42.254Z,42.70
2018-03-25T13:07:42.288Z,43.08
2018-03-25T13:08:42.354Z,42.80
2018-03-25T13:09:42.269Z,42.80
2018-03-25T13:10:43.946Z,42.63
2018-03-25T13:11:42.359Z,42.32
2018-03-25T13:12:44.958Z,42.22
2018-03-25T13:13:42.326Z,42.22
2018-03-25T13:14:42.388Z,42.70
2018-03-25T13:15:42.331Z,43.08
2018-03-25T13:16:43.957Z,43.37
2018-03-25T13:17:43.960Z,43.56
2018-03-25T13:18:54.129Z,43.56
2018-03-25T13:19:43.961Z,44.04
2018-03-25T13:20:44.959Z,43.76
2018-03-25T13:21:43.962Z,43.56
2018-03-25T13:22:42.431Z,43.44
2018-03-25T13:23:43.967Z,43.66
2018-03-25T13:24:42.394Z,43.66
2018-03-25T13:25:44.971Z,43.66
2018-03-25T13:26:42.427Z,43.85
2018-03-25T13:27:43.965Z,43.76
2018-03-25T13:28:44.058Z,43.37
2018-03-25T13:29:46.027Z,43.56
2018-03-25T13:30:42.539Z,43.56
2018-03-25T13:31:42.549Z,43.18
2018-03-25T13:32:46.039Z,43.18
2018-03-25T13:33:43.470Z,43.08
2018-03-25T13:34:42.495Z,43.47
2018-03-25T13:35:45.467Z,43.18
2018-03-25T13:36:44.495Z,43.18
2018-03-25T13:37:42.490Z,43.08
2018-03-25T13:38:42.562Z,42.60
2018-03-25T13:39:45.568Z,43.08
2018-03-25T13:40:42.514Z,42.51
2018-03-25T13:41:42.581Z,42.51
2018-03-25T13:42:42.573Z,42.90
2018-03-25T13:43:42.537Z,42.49
2018-03-25T13:44:42.559Z,42.77
2018-03-25T13:45:42.629Z,43.16
2018-03-25T13:46:42.572Z,43.16
2018-03-25T13:47:45.481Z,43.26
2018-03-25T13:48:42.697Z,43.44
2018-03-25T13:49:42.674Z,43.63
2018-03-25T13:50:44.483Z,43.83
2018-03-25T13:51:42.689Z,43.63
2018-03-25T13:52:43.842Z,43.66
2018-03-25T13:53:45.474Z,43.95
2018-03-25T13:54:42.712Z,43.54
2018-03-25T13:55:44.519Z,43.73
2018-03-25T13:56:44.516Z,43.85
2018-03-25T13:57:44.486Z,43.66
2018-03-25T13:58:42.638Z,43.08